Time;durP1;ratioP1;P1;durP2;ratioP2;P2;SDS_P1;SDS_P2;PMS_P1;PMS_P2;Temp;Humidity;BMP_temperature;BMP_pressure;BME280_temperature;BME280_humidity;BME280_pressure;Samples;Min_cycle;Max_cycle;Signal;HPM_P1;HPM_P2
2021/09/22 00:02:25;;;;;;;7.63;6.57;;;14.40;70.60;;;;;;5024360;28;20209;-91
2021/09/22 00:04:51;;;;;;;7.33;6.70;;;14.20;71.60;;;;;;5019585;28;20271;-91
2021/09/22 00:07:16;;;;;;;7.13;6.43;;;13.90;72.80;;;;;;5023153;28;20217;-91
2021/09/22 00:09:42;;;;;;;6.80;6.20;;;14.00;73.00;;;;;;5024058;28;20214;-91
2021/09/22 00:12:08;;;;;;;6.97;6.37;;;14.00;73.40;;;;;;5039360;28;20225;-92
2021/09/22 00:14:33;;;;;;;8.73;6.23;;;14.20;72.60;;;;;;5051148;28;20577;-91
2021/09/22 00:16:59;;;;;;;6.53;6.03;;;14.30;72.00;;;;;;5013751;28;20233;-91
2021/09/22 00:19:25;;;;;;;6.90;6.40;;;14.50;71.40;;;;;;5005065;28;20219;-91
2021/09/22 00:21:50;;;;;;;6.57;5.97;;;14.50;71.30;;;;;;5016740;28;20199;-91
2021/09/22 00:24:16;;;;;;;7.30;6.70;;;14.50;72.20;;;;;;5041390;28;20181;-92
2021/09/22 00:26:42;;;;;;;7.00;6.33;;;14.60;71.00;;;;;;5009566;28;20420;-91
2021/09/22 00:29:08;;;;;;;6.97;6.33;;;14.60;70.80;;;;;;5053168;28;20204;-91
2021/09/22 00:31:36;;;;;;;6.57;6.07;;;14.70;70.30;;;;;;5028793;28;20237;-91
2021/09/22 00:34:03;;;;;;;7.00;6.47;;;14.70;70.10;;;;;;5022758;28;20213;-91
2021/09/22 00:36:28;;;;;;;7.27;6.50;;;14.70;69.80;;;;;;5019437;28;20184;-91
2021/09/22 00:38:54;;;;;;;6.43;5.93;;;14.70;70.30;;;;;;5022527;28;20222;-91
2021/09/22 00:41:20;;;;;;;6.63;6.13;;;14.70;70.20;;;;;;5005364;28;20563;-90
2021/09/22 00:43:46;;;;;;;6.70;6.20;;;14.60;70.20;;;;;;5014116;28;20205;-91
2021/09/22 00:46:11;;;;;;;6.77;6.17;;;14.60;69.90;;;;;;5058650;28;20228;-91
2021/09/22 00:48:37;;;;;;;7.00;6.33;;;14.50;70.20;;;;;;5052575;28;20209;-91
2021/09/22 00:51:08;;;;;;;7.53;6.73;;;14.50;70.40;;;;;;5027163;28;20215;-93
2021/09/22 00:53:34;;;;;;;6.80;6.30;;;14.50;70.30;;;;;;5041337;28;20193;-92
2021/09/22 00:56:03;;;;;;;6.60;6.10;;;14.50;69.80;;;;;;5040989;28;20180;-91
2021/09/22 00:58:29;;;;;;;6.67;6.03;;;14.50;70.40;;;;;;5049062;28;20818;-91
2021/09/22 01:00:55;;;;;;;7.57;6.77;;;14.60;69.80;;;;;;5054493;28;20282;-92
2021/09/22 01:03:21;;;;;;;7.20;6.60;;;14.60;69.80;;;;;;5077161;28;20187;-91
2021/09/22 01:05:48;;;;;;;7.27;6.67;;;14.60;69.70;;;;;;5042866;28;20352;-91
2021/09/22 01:08:16;;;;;;;7.97;7.20;;;14.60;69.80;;;;;;5041998;28;20243;-91
2021/09/22 01:10:44;;;;;;;7.97;7.27;;;14.40;69.10;;;;;;5022021;28;20701;-91
2021/09/22 01:13:10;;;;;;;7.50;6.87;;;14.20;69.60;;;;;;5030633;28;20188;-91
2021/09/22 01:15:38;;;;;;;7.43;6.77;;;14.10;70.30;;;;;;5046648;28;20207;-91
2021/09/22 01:18:08;;;;;;;8.03;7.23;;;14.00;70.90;;;;;;5040660;28;20186;-91
2021/09/22 01:20:33;;;;;;;7.80;7.10;;;13.90;71.10;;;;;;5028724;28;20800;-91
2021/09/22 01:23:01;;;;;;;7.57;6.87;;;13.70;71.70;;;;;;5048444;28;20223;-91
2021/09/22 01:25:27;;;;;;;8.03;7.30;;;13.50;73.00;;;;;;5056679;28;20193;-92
2021/09/22 01:27:58;;;;;;;9.03;8.20;;;13.60;72.30;;;;;;5074733;28;20199;-93
2021/09/22 01:30:25;;;;;;;8.60;7.80;;;13.70;72.10;;;;;;5077256;28;20208;-92
2021/09/22 01:33:18;;;;;;;8.27;7.47;;;13.60;71.40;;;;;;5051501;28;20239;-91
2021/09/22 01:35:46;;;;;;;10.40;7.73;;;13.70;72.10;;;;;;5039230;28;20646;-91
2021/09/22 01:38:26;;;;;;;8.47;7.67;;;13.70;72.50;;;;;;5043751;28;20188;-91
2021/09/22 01:41:03;;;;;;;9.03;8.00;;;13.70;71.60;;;;;;5051576;28;20182;-92
2021/09/22 01:43:31;;;;;;;7.87;7.27;;;13.70;71.30;;;;;;5042656;28;20184;-91
2021/09/22 01:45:58;;;;;;;7.67;7.07;;;13.60;71.40;;;;;;5030982;28;20181;-91
2021/09/22 01:48:24;;;;;;;8.80;7.87;;;13.50;71.90;;;;;;5059300;28;20212;-90
2021/09/22 01:50:50;;;;;;;8.30;7.60;;;13.30;73.10;;;;;;5051242;28;20279;-91
2021/09/22 01:53:16;;;;;;;7.97;7.17;;;13.30;73.30;;;;;;5009397;28;20220;-91
2021/09/22 01:55:42;;;;;;;7.73;6.90;;;13.40;73.40;;;;;;5057680;28;20188;-91
2021/09/22 01:58:08;;;;;;;7.67;7.07;;;13.50;73.40;;;;;;5004325;28;20213;-91
2021/09/22 02:00:34;;;;;;;8.40;7.60;;;13.70;73.20;;;;;;5039584;28;20201;-91
2021/09/22 02:03:00;;;;;;;9.07;8.27;;;13.90;72.50;;;;;;5059117;28;20746;-90
2021/09/22 02:05:26;;;;;;;9.47;8.57;;;13.90;71.40;;;;;;5059528;28;20275;-91
2021/09/22 02:07:52;;;;;;;10.70;8.40;;;13.90;71.00;;;;;;5038598;28;20196;-90
2021/09/22 02:10:17;;;;;;;9.17;8.37;;;13.80;70.70;;;;;;5056346;28;20250;-91
2021/09/22 02:12:43;;;;;;;9.23;8.43;;;13.70;71.20;;;;;;5040943;28;20189;-91
2021/09/22 02:15:09;;;;;;;8.87;8.10;;;13.60;71.80;;;;;;5060330;28;20197;-91
2021/09/22 02:17:35;;;;;;;9.17;8.30;;;13.50;72.30;;;;;;5010183;28;20193;-91
2021/09/22 02:20:01;;;;;;;8.90;8.20;;;13.30;72.90;;;;;;5059173;28;20349;-91
2021/09/22 02:22:26;;;;;;;10.50;9.57;;;13.00;73.60;;;;;;5030621;28;20677;-91
2021/09/22 02:24:52;;;;;;;10.17;9.27;;;12.90;74.40;;;;;;5016998;28;20191;-91
2021/09/22 02:27:18;;;;;;;10.27;8.57;;;12.80;74.60;;;;;;5010604;28;20203;-92
2021/09/22 02:29:45;;;;;;;9.20;8.40;;;12.70;75.70;;;;;;5028438;28;20220;-91
2021/09/22 02:32:11;;;;;;;10.43;9.43;;;12.80;75.40;;;;;;5017946;28;20282;-91
2021/09/22 02:34:37;;;;;;;9.67;8.67;;;12.90;75.00;;;;;;5057606;28;20231;-91
2021/09/22 02:37:04;;;;;;;10.00;9.00;;;13.00;74.70;;;;;;5041629;28;20184;-91
2021/09/22 02:39:31;;;;;;;9.73;8.73;;;12.80;74.70;;;;;;5035962;28;20216;-91
2021/09/22 02:41:57;;;;;;;10.50;9.40;;;12.70;75.50;;;;;;5055599;28;20207;-91
2021/09/22 02:44:23;;;;;;;10.30;8.97;;;12.60;75.80;;;;;;5041386;28;20189;-91
2021/09/22 02:46:49;;;;;;;9.40;8.60;;;12.60;76.10;;;;;;5039869;28;20206;-91
2021/09/22 02:49:15;;;;;;;10.27;9.37;;;12.60;75.40;;;;;;5061157;28;20655;-91
2021/09/22 02:51:41;;;;;;;9.93;9.13;;;12.70;75.50;;;;;;5046330;28;20241;-92
2021/09/22 02:54:06;;;;;;;9.80;9.00;;;12.70;75.40;;;;;;5062618;28;20188;-91
2021/09/22 02:56:32;;;;;;;10.97;10.03;;;12.90;74.90;;;;;;5011200;28;20276;-92
2021/09/22 02:58:58;;;;;;;10.23;9.37;;;12.70;75.60;;;;;;5030524;28;20750;-91
2021/09/22 03:01:23;;;;;;;10.97;9.80;;;12.70;76.50;;;;;;5039566;28;20597;-90
2021/09/22 03:03:49;;;;;;;9.77;8.97;;;12.80;75.20;;;;;;5034272;28;20218;-91
2021/09/22 03:06:15;;;;;;;9.33;8.53;;;12.90;75.40;;;;;;5019911;28;20203;-91
2021/09/22 03:08:41;;;;;;;9.27;8.50;;;13.00;74.60;;;;;;5046471;28;20208;-91
2021/09/22 03:11:09;;;;;;;9.60;8.80;;;13.10;74.30;;;;;;5045785;28;20252;-91
2021/09/22 03:13:38;;;;;;;9.50;8.63;;;13.00;74.30;;;;;;5044297;28;20189;-91
2021/09/22 03:16:06;;;;;;;9.77;8.87;;;12.90;74.00;;;;;;5022553;28;20188;-91
2021/09/22 03:18:32;;;;;;;9.80;8.90;;;12.70;75.00;;;;;;5037956;28;20690;-91
2021/09/22 03:20:58;;;;;;;9.93;9.13;;;12.70;75.90;;;;;;5039327;28;20207;-91
2021/09/22 03:23:24;;;;;;;10.40;9.40;;;12.70;75.80;;;;;;5042626;28;20214;-91
2021/09/22 03:25:50;;;;;;;10.67;9.67;;;12.60;76.00;;;;;;5056882;28;20191;-90
2021/09/22 03:28:16;;;;;;;10.00;9.10;;;12.50;76.00;;;;;;5038230;28;20216;-90
2021/09/22 03:30:42;;;;;;;9.10;8.20;;;12.40;77.00;;;;;;5020139;28;20634;-93
2021/09/22 03:33:08;;;;;;;9.60;8.80;;;12.50;77.30;;;;;;5039724;28;20192;-91
2021/09/22 03:35:34;;;;;;;9.90;9.00;;;12.50;76.60;;;;;;5010756;28;20266;-91
2021/09/22 03:38:00;;;;;;;10.03;9.13;;;12.60;76.00;;;;;;5024820;28;20193;-90
2021/09/22 03:40:26;;;;;;;10.00;9.20;;;12.70;76.60;;;;;;5021492;28;20195;-91
2021/09/22 03:42:52;;;;;;;10.70;8.80;;;12.80;75.70;;;;;;5026802;28;20192;-91
2021/09/22 03:45:18;;;;;;;10.00;9.00;;;12.80;75.70;;;;;;5060707;28;20244;-91
2021/09/22 03:47:43;;;;;;;9.13;8.33;;;12.80;74.80;;;;;;5037473;28;20210;-90
2021/09/22 03:50:12;;;;;;;9.73;8.87;;;12.70;75.30;;;;;;5040381;28;20215;-90
2021/09/22 03:52:38;;;;;;;9.53;8.63;;;12.70;75.20;;;;;;5029195;28;20215;-91
2021/09/22 03:55:06;;;;;;;9.13;8.30;;;12.80;75.00;;;;;;5048211;28;20195;-92
2021/09/22 03:57:31;;;;;;;8.70;8.00;;;12.90;74.80;;;;;;5039658;28;20204;-90
2021/09/22 03:59:57;;;;;;;8.70;7.97;;;12.90;75.00;;;;;;5039846;28;20279;-91
2021/09/22 04:02:23;;;;;;;8.93;8.23;;;12.90;74.40;;;;;;5054927;28;20288;-91
2021/09/22 04:04:49;;;;;;;9.57;8.57;;;12.90;74.70;;;;;;5056648;28;20855;-91
2021/09/22 04:07:14;;;;;;;8.90;8.07;;;12.80;74.60;;;;;;5040627;28;20181;-91
2021/09/22 04:09:40;;;;;;;8.90;8.20;;;12.90;74.40;;;;;;5034603;28;20220;-91
2021/09/22 04:12:06;;;;;;;9.03;8.33;;;12.90;74.40;;;;;;5024406;28;20188;-90
2021/09/22 04:14:32;;;;;;;9.73;8.93;;;12.90;74.20;;;;;;5059871;28;20186;-90
2021/09/22 04:16:58;;;;;;;10.23;9.33;;;12.90;73.50;;;;;;5036944;28;20847;-90
2021/09/22 04:19:24;;;;;;;9.53;8.73;;;12.80;74.40;;;;;;5031433;28;20208;-90
2021/09/22 04:21:51;;;;;;;9.70;8.90;;;12.70;74.30;;;;;;5052291;28;20172;-90
2021/09/22 04:24:16;;;;;;;9.27;8.57;;;12.70;75.40;;;;;;5037484;28;20187;-90
2021/09/22 04:26:42;;;;;;;9.60;8.63;;;12.70;74.60;;;;;;5037860;28;20189;-90
2021/09/22 04:29:08;;;;;;;9.50;8.60;;;12.70;74.40;;;;;;5005714;28;20770;-90
2021/09/22 04:31:34;;;;;;;9.40;8.60;;;12.70;74.20;;;;;;5055210;28;20223;-89
2021/09/22 04:34:00;;;;;;;9.37;8.57;;;12.70;74.90;;;;;;5046974;28;20555;-90
2021/09/22 04:36:27;;;;;;;9.33;8.63;;;12.70;74.60;;;;;;5047125;28;20689;-89
2021/09/22 04:38:53;;;;;;;9.20;8.50;;;12.70;74.20;;;;;;5036823;28;20288;-90
2021/09/22 04:41:19;;;;;;;9.50;8.50;;;12.80;73.90;;;;;;5048498;28;20246;-90
2021/09/22 04:43:44;;;;;;;9.10;8.20;;;12.80;73.90;;;;;;5046345;28;20237;-90
2021/09/22 04:46:10;;;;;;;9.10;8.30;;;12.90;73.90;;;;;;5003470;28;20195;-90
2021/09/22 04:48:38;;;;;;;8.93;8.03;;;13.00;73.30;;;;;;5042281;28;20290;-90
2021/09/22 04:51:04;;;;;;;8.77;7.97;;;12.90;73.00;;;;;;5028479;28;20619;-90
2021/09/22 04:53:30;;;;;;;10.40;9.37;;;12.80;72.80;;;;;;5051110;28;20299;-91
2021/09/22 04:55:56;;;;;;;8.90;8.13;;;12.70;73.20;;;;;;5034562;28;20192;-90
2021/09/22 04:58:22;;;;;;;9.23;8.33;;;12.60;73.90;;;;;;5038171;28;20691;-91
2021/09/22 05:00:48;;;;;;;9.67;8.77;;;12.60;74.10;;;;;;5056380;28;20726;-90
2021/09/22 05:03:15;;;;;;;8.90;8.20;;;12.60;74.20;;;;;;5018666;28;20249;-90
2021/09/22 05:05:41;;;;;;;9.00;8.20;;;12.50;74.40;;;;;;5034746;28;20183;-90
2021/09/22 05:08:07;;;;;;;8.93;8.13;;;12.50;74.30;;;;;;5055157;28;20191;-91
2021/09/22 05:10:33;;;;;;;9.63;8.77;;;12.20;75.60;;;;;;5037686;28;20690;-90
2021/09/22 05:12:59;;;;;;;10.00;8.97;;;12.00;76.10;;;;;;5034454;28;20194;-91
2021/09/22 05:15:24;;;;;;;9.03;8.20;;;11.90;76.70;;;;;;5029140;28;20197;-88
2021/09/22 05:17:50;;;;;;;9.30;8.40;;;11.90;77.10;;;;;;5021012;28;20558;-92
2021/09/22 05:20:16;;;;;;;9.43;8.47;;;11.80;76.80;;;;;;5037058;28;20214;-91
2021/09/22 05:22:41;;;;;;;9.83;8.93;;;11.70;77.70;;;;;;5057249;28;20678;-92
2021/09/22 05:25:07;;;;;;;10.50;9.17;;;11.70;77.60;;;;;;5033404;28;20197;-90
2021/09/22 05:27:33;;;;;;;9.13;8.43;;;11.50;78.50;;;;;;5056488;28;20192;-90
2021/09/22 05:29:59;;;;;;;10.33;9.43;;;11.60;78.20;;;;;;5038187;28;20217;-90
2021/09/22 05:32:25;;;;;;;10.53;9.53;;;11.70;77.90;;;;;;5053980;28;20179;-90
2021/09/22 05:34:51;;;;;;;11.10;10.10;;;11.70;77.00;;;;;;5025816;28;20848;-91
2021/09/22 05:37:18;;;;;;;10.07;9.23;;;11.60;77.70;;;;;;5046936;28;20363;-90
2021/09/22 05:39:44;;;;;;;10.87;9.60;;;11.60;78.30;;;;;;5058540;28;20300;-90
2021/09/22 05:42:10;;;;;;;10.93;9.10;;;11.60;78.00;;;;;;5020870;28;20177;-90
2021/09/22 05:44:35;;;;;;;10.87;9.87;;;11.60;78.10;;;;;;5021893;28;20660;-89
2021/09/22 05:47:01;;;;;;;12.57;10.60;;;11.60;78.70;;;;;;5050995;28;20213;-94
2021/09/22 05:49:28;;;;;;;11.37;10.23;;;11.80;78.20;;;;;;5056144;28;20190;-92
2021/09/22 05:51:53;;;;;;;10.57;9.00;;;11.70;77.90;;;;;;5016556;28;20194;-91
2021/09/22 05:54:21;;;;;;;11.13;10.03;;;11.80;77.70;;;;;;5019264;28;20189;-91
2021/09/22 05:56:48;;;;;;;11.10;9.60;;;11.70;77.70;;;;;;5019379;28;20266;-91
2021/09/22 05:59:14;;;;;;;15.47;10.47;;;11.70;78.10;;;;;;5002336;28;20287;-90
2021/09/22 06:01:40;;;;;;;11.40;10.33;;;11.70;78.40;;;;;;5018756;28;20193;-91
2021/09/22 06:04:06;;;;;;;10.23;9.33;;;11.70;78.20;;;;;;5003070;28;20280;-91
2021/09/22 06:06:32;;;;;;;11.03;9.77;;;11.70;78.60;;;;;;5023821;28;20187;-91
2021/09/22 06:08:58;;;;;;;12.10;10.97;;;11.60;78.70;;;;;;5007411;28;20211;-91
2021/09/22 06:11:23;;;;;;;10.67;9.70;;;11.60;78.40;;;;;;5007690;28;20230;-87
2021/09/22 06:13:53;;;;;;;11.40;10.33;;;11.60;78.90;;;;;;5041950;28;20186;-91
2021/09/22 06:16:20;;;;;;;11.80;10.57;;;11.60;79.40;;;;;;5042286;28;20182;-90
2021/09/22 06:18:46;;;;;;;12.20;11.00;;;11.70;78.70;;;;;;5025038;28;20210;-89
2021/09/22 06:21:12;;;;;;;11.27;10.23;;;11.70;78.90;;;;;;5018771;28;20217;-91
2021/09/22 06:23:38;;;;;;;12.80;10.93;;;11.70;79.00;;;;;;5047843;28;20218;-89
2021/09/22 06:26:03;;;;;;;12.67;11.07;;;11.60;79.00;;;;;;5044038;28;20276;-88
2021/09/22 06:28:29;;;;;;;12.13;11.03;;;11.70;78.90;;;;;;5062254;28;20760;-89
2021/09/22 06:30:55;;;;;;;11.33;10.23;;;11.70;78.70;;;;;;5062539;28;20223;-89
2021/09/22 06:33:23;;;;;;;12.13;11.13;;;11.70;79.40;;;;;;5063302;28;20235;-89
2021/09/22 06:35:49;;;;;;;12.03;10.53;;;11.60;79.60;;;;;;5046402;28;20252;-88
2021/09/22 06:38:15;;;;;;;11.03;9.90;;;11.70;79.50;;;;;;5064780;28;20231;-88
2021/09/22 06:40:41;;;;;;;12.17;11.13;;;11.70;79.70;;;;;;5051171;28;20188;-87
2021/09/22 06:43:07;;;;;;;12.40;11.30;;;11.70;79.30;;;;;;5064910;28;20197;-88
2021/09/22 06:45:33;;;;;;;12.00;10.83;;;11.70;79.20;;;;;;5064152;28;20262;-88
2021/09/22 06:47:59;;;;;;;13.27;11.73;;;11.90;79.10;;;;;;5047942;28;20185;-89
2021/09/22 06:50:25;;;;;;;12.20;11.00;;;11.90;78.60;;;;;;5068155;28;20209;-88
2021/09/22 06:52:51;;;;;;;12.10;10.93;;;11.90;78.70;;;;;;5065642;28;20743;-88
2021/09/22 06:55:17;;;;;;;12.80;11.70;;;12.00;78.60;;;;;;5041404;28;20221;-88
2021/09/22 06:57:43;;;;;;;12.93;11.73;;;12.00;78.30;;;;;;5043837;28;20235;-88
2021/09/22 07:00:10;;;;;;;13.23;11.03;;;12.00;78.30;;;;;;5059743;28;20216;-89
2021/09/22 07:02:37;;;;;;;13.33;11.87;;;12.10;77.90;;;;;;5043806;28;20235;-88
2021/09/22 07:05:08;;;;;;;11.83;10.73;;;12.20;77.60;;;;;;5059632;28;20191;-88
2021/09/22 07:07:33;;;;;;;12.57;11.27;;;12.20;77.80;;;;;;5061683;28;20203;-88
2021/09/22 07:09:59;;;;;;;12.90;11.80;;;12.40;77.70;;;;;;5058298;28;20753;-90
2021/09/22 07:12:25;;;;;;;12.53;11.33;;;12.50;76.30;;;;;;5034226;28;20202;-88
2021/09/22 07:14:50;;;;;;;13.27;11.97;;;12.60;76.10;;;;;;5038086;28;20201;-88
2021/09/22 07:17:18;;;;;;;11.93;10.77;;;12.60;75.80;;;;;;5033764;28;20278;-88
2021/09/22 07:19:44;;;;;;;13.23;11.87;;;12.60;75.60;;;;;;5018773;28;20654;-89
2021/09/22 07:22:10;;;;;;;13.67;11.37;;;12.60;75.70;;;;;;5056098;28;20673;-89
2021/09/22 07:24:35;;;;;;;12.43;11.27;;;12.60;76.10;;;;;;5050858;28;20194;-89
2021/09/22 07:27:01;;;;;;;12.90;11.50;;;12.50;76.50;;;;;;5055381;28;20214;-89
2021/09/22 07:29:27;;;;;;;13.20;11.77;;;12.50;76.50;;;;;;5057986;28;20210;-88
2021/09/22 07:31:54;;;;;;;12.40;11.20;;;12.50;76.90;;;;;;5057647;28;20226;-88
2021/09/22 07:34:20;;;;;;;13.30;12.10;;;12.70;76.90;;;;;;5041758;28;20173;-88
2021/09/22 07:36:48;;;;;;;13.40;12.10;;;12.60;76.70;;;;;;5036173;28;20467;-88
2021/09/22 07:39:14;;;;;;;12.80;11.63;;;12.60;76.30;;;;;;5055141;28;20238;-90
2021/09/22 07:41:40;;;;;;;12.73;11.47;;;12.70;76.70;;;;;;5043226;28;20216;-90
2021/09/22 07:44:09;;;;;;;13.57;12.17;;;12.80;76.80;;;;;;5038624;28;20220;-90
2021/09/22 07:46:35;;;;;;;12.90;11.70;;;12.80;75.90;;;;;;5058180;28;20214;-93
2021/09/22 07:49:01;;;;;;;12.83;11.63;;;12.80;76.40;;;;;;5033811;28;20212;-90
2021/09/22 07:51:27;;;;;;;13.67;12.40;;;12.80;76.60;;;;;;5035574;28;20296;-91
2021/09/22 07:53:53;;;;;;;12.93;11.63;;;12.90;76.20;;;;;;5051311;28;20180;-90
2021/09/22 07:56:18;;;;;;;13.70;12.30;;;12.90;76.40;;;;;;5031029;28;20814;-90
2021/09/22 07:58:44;;;;;;;12.07;10.97;;;13.00;75.60;;;;;;5058018;28;20233;-90
2021/09/22 08:01:12;;;;;;;15.00;13.40;;;13.00;75.70;;;;;;5053305;28;20262;-90
2021/09/22 08:03:39;;;;;;;14.20;12.60;;;13.10;76.00;;;;;;5042008;28;20666;-89
2021/09/22 08:06:07;;;;;;;13.90;12.57;;;13.10;76.00;;;;;;5046492;28;20203;-89
2021/09/22 08:08:32;;;;;;;15.00;13.50;;;13.10;75.70;;;;;;5056099;28;20214;-89
2021/09/22 08:10:58;;;;;;;13.47;12.13;;;13.20;75.30;;;;;;5040706;28;20247;-89
2021/09/22 08:13:24;;;;;;;14.47;13.07;;;13.30;75.50;;;;;;5043856;28;20199;-90
2021/09/22 08:15:50;;;;;;;15.47;14.07;;;13.30;74.60;;;;;;5034297;28;20196;-90
2021/09/22 08:18:17;;;;;;;14.00;12.70;;;13.30;75.00;;;;;;5059624;28;20199;-89
2021/09/22 08:20:42;;;;;;;14.40;12.90;;;13.30;74.70;;;;;;5042656;28;20203;-89
2021/09/22 08:23:09;;;;;;;13.50;12.23;;;13.30;75.20;;;;;;5042519;28;20199;-90
2021/09/22 08:25:35;;;;;;;14.50;12.97;;;13.40;74.90;;;;;;5022423;28;20203;-90
2021/09/22 08:28:00;;;;;;;14.30;12.90;;;13.50;74.70;;;;;;5021553;28;20198;-90
2021/09/22 08:30:27;;;;;;;12.97;11.87;;;13.70;73.70;;;;;;5029897;28;20239;-90
2021/09/22 08:32:52;;;;;;;13.97;12.57;;;13.80;74.00;;;;;;5045797;28;20227;-90
2021/09/22 08:35:18;;;;;;;15.63;13.53;;;13.90;73.80;;;;;;5040664;28;20195;-90
2021/09/22 08:37:44;;;;;;;14.17;12.73;;;14.00;73.00;;;;;;5057532;28;20234;-90
2021/09/22 08:40:11;;;;;;;14.70;13.30;;;14.20;72.80;;;;;;5044643;28;20244;-90
2021/09/22 08:42:37;;;;;;;16.30;12.40;;;14.50;71.80;;;;;;5060927;28;20604;-91
2021/09/22 08:45:04;;;;;;;14.50;13.17;;;14.40;71.50;;;;;;5050370;28;20188;-90
2021/09/22 08:47:30;;;;;;;13.93;12.47;;;14.50;71.60;;;;;;5025681;28;20189;-91
2021/09/22 08:49:57;;;;;;;13.10;11.87;;;14.70;70.90;;;;;;5039929;28;20306;-91
2021/09/22 08:52:22;;;;;;;13.37;12.00;;;15.00;70.60;;;;;;5038077;28;20335;-90
2021/09/22 08:54:48;;;;;;;13.27;11.93;;;15.20;69.30;;;;;;5040120;28;20207;-91
2021/09/22 08:57:14;;;;;;;14.17;12.57;;;15.40;68.30;;;;;;5041021;28;20180;-90
2021/09/22 08:59:40;;;;;;;13.00;11.80;;;15.70;67.30;;;;;;5053612;28;20246;-91
2021/09/22 09:02:17;;;;;;;12.63;11.53;;;15.70;67.70;;;;;;5044382;28;20188;-90
2021/09/22 09:04:45;;;;;;;13.40;12.10;;;15.80;66.90;;;;;;5062971;28;20263;-91
2021/09/22 09:07:12;;;;;;;13.20;12.00;;;15.80;67.70;;;;;;5043459;28;20182;-92
2021/09/22 09:09:44;;;;;;;13.63;12.30;;;16.00;67.20;;;;;;5068351;28;20214;-91
2021/09/22 09:12:18;;;;;;;13.17;11.93;;;16.10;66.00;;;;;;5049333;28;20258;-92
2021/09/22 09:14:52;;;;;;;13.70;12.27;;;16.20;66.10;;;;;;5060371;28;20188;-90
2021/09/22 09:17:34;;;;;;;14.37;11.90;;;16.10;65.50;;;;;;5070432;28;20192;-91
2021/09/22 09:19:59;;;;;;;12.83;11.73;;;16.10;65.70;;;;;;5067924;28;20241;-91
2021/09/22 09:22:25;;;;;;;12.67;11.40;;;16.30;66.20;;;;;;5070840;28;20184;-92
2021/09/22 09:24:54;;;;;;;12.30;11.30;;;16.50;64.50;;;;;;5051397;28;20199;-91
2021/09/22 09:27:23;;;;;;;12.20;11.10;;;16.70;65.20;;;;;;5058916;28;20232;-90
2021/09/22 09:29:54;;;;;;;12.43;11.13;;;16.90;63.20;;;;;;5059636;28;20257;-91
2021/09/22 09:32:26;;;;;;;12.73;11.33;;;17.00;61.90;;;;;;5027336;28;20586;-91
2021/09/22 09:35:05;;;;;;;11.53;10.43;;;17.20;61.90;;;;;;5051383;28;20202;-91
2021/09/22 09:37:38;;;;;;;14.33;11.03;;;17.40;61.70;;;;;;5034917;28;20191;-91
2021/09/22 09:40:15;;;;;;;11.00;10.00;;;17.30;60.60;;;;;;5040624;28;20296;-91
2021/09/22 09:42:41;;;;;;;12.63;11.43;;;17.40;60.70;;;;;;5030192;28;20206;-91
2021/09/22 09:45:07;;;;;;;11.03;9.90;;;17.50;60.30;;;;;;5012603;28;20245;-90
2021/09/22 09:47:33;;;;;;;9.87;8.80;;;17.90;59.60;;;;;;5057122;28;20192;-90
2021/09/22 09:50:19;;;;;;;10.00;9.10;;;18.20;57.20;;;;;;5057761;28;20288;-91
2021/09/22 09:52:54;;;;;;;9.40;8.67;;;18.40;56.10;;;;;;5025165;28;20250;-91
2021/09/22 09:55:23;;;;;;;9.83;8.93;;;18.50;55.20;;;;;;5061405;28;20645;-91
2021/09/22 09:57:50;;;;;;;9.53;8.63;;;18.50;55.40;;;;;;5060253;28;20187;-91
2021/09/22 10:00:43;;;;;;;9.30;8.57;;;18.60;54.60;;;;;;5065198;28;20234;-91
2021/09/22 10:03:09;;;;;;;8.40;7.70;;;18.80;53.20;;;;;;5063241;28;20189;-91
2021/09/22 10:05:35;;;;;;;9.05;8.30;;;19.10;52.70;;;;;;5031281;28;20195;-91
2021/09/22 10:08:01;;;;;;;9.00;8.30;;;19.30;52.40;;;;;;5036068;28;20591;-91
2021/09/22 10:10:27;;;;;;;10.45;9.55;;;19.50;51.60;;;;;;5038906;28;20318;-91
2021/09/22 10:12:55;;;;;;;9.50;8.52;;;19.50;51.20;;;;;;5048295;28;20190;-91
2021/09/22 10:15:22;;;;;;;14.32;8.60;;;19.40;50.60;;;;;;5032920;28;20183;-91
2021/09/22 10:17:50;;;;;;;8.60;7.80;;;19.50;50.80;;;;;;5045524;28;20191;-90
2021/09/22 10:20:17;;;;;;;8.57;7.60;;;19.70;49.80;;;;;;5025821;28;20227;-91
2021/09/22 10:22:43;;;;;;;9.38;8.20;;;19.80;50.00;;;;;;5059492;28;20203;-92
2021/09/22 10:25:10;;;;;;;8.93;8.23;;;19.90;50.50;;;;;;5033847;28;20187;-92
2021/09/22 10:27:37;;;;;;;9.07;8.23;;;19.80;49.40;;;;;;5041581;28;20291;-92
2021/09/22 10:30:07;;;;;;;6.88;6.38;;;19.80;50.30;;;;;;5059305;28;20225;-92
2021/09/22 10:32:39;;;;;;;9.75;7.07;;;19.90;50.00;;;;;;5037306;28;20188;-92
2021/09/22 10:35:26;;;;;;;8.07;7.28;;;20.30;48.90;;;;;;5034409;28;20687;-92
2021/09/22 10:37:58;;;;;;;6.18;5.03;;;20.40;48.00;;;;;;5055370;28;20215;-92
2021/09/22 10:40:52;;;;;;;5.00;4.43;;;20.60;44.10;;;;;;5040808;28;20189;-91
2021/09/22 10:43:22;;;;;;;4.35;3.95;;;20.80;43.70;;;;;;5040898;28;20621;-92
2021/09/22 10:46:10;;;;;;;5.00;4.05;;;21.20;42.30;;;;;;5047398;28;20608;-91
2021/09/22 10:48:39;;;;;;;4.60;4.30;;;21.10;42.80;;;;;;5051223;28;20227;-91
2021/09/22 10:51:09;;;;;;;4.38;4.07;;;21.40;42.10;;;;;;5038910;28;20290;-91
2021/09/22 10:53:37;;;;;;;4.07;3.75;;;21.50;41.20;;;;;;5059495;28;20187;-91
2021/09/22 10:56:16;;;;;;;3.92;3.63;;;21.60;42.00;;;;;;5041944;28;20202;-91
2021/09/22 10:58:56;;;;;;;4.80;4.38;;;21.90;40.30;;;;;;5052172;28;20746;-92
2021/09/22 11:01:40;;;;;;;6.28;3.83;;;21.90;40.10;;;;;;5039111;28;20195;-93
2021/09/22 11:04:08;;;;;;;4.30;3.95;;;22.20;39.20;;;;;;5032454;28;20244;-93
2021/09/22 11:06:46;;;;;;;4.80;4.05;;;22.40;39.00;;;;;;5016497;28;20211;-92
2021/09/22 11:09:21;;;;;;;4.82;4.40;;;22.50;38.90;;;;;;5039476;28;20202;-90
2021/09/22 11:11:55;;;;;;;3.95;3.65;;;22.10;39.30;;;;;;5057811;28;20732;-91
2021/09/22 11:14:27;;;;;;;4.55;4.15;;;22.20;40.70;;;;;;5035941;28;20271;-90
2021/09/22 11:17:04;;;;;;;3.95;3.60;;;22.40;39.30;;;;;;5038176;28;20181;-92
2021/09/22 11:19:31;;;;;;;4.25;3.95;;;22.50;39.70;;;;;;5052414;28;20215;-92
2021/09/22 11:21:58;;;;;;;3.83;3.53;;;22.50;39.20;;;;;;5050146;28;20184;-92
2021/09/22 11:24:28;;;;;;;4.22;3.75;;;22.50;39.70;;;;;;5036370;28;20188;-92
2021/09/22 11:27:05;;;;;;;3.70;3.30;;;22.70;39.00;;;;;;5042538;28;20670;-92
2021/09/22 11:29:50;;;;;;;4.32;3.50;;;22.90;38.40;;;;;;5058559;28;20220;-93
2021/09/22 11:32:40;;;;;;;3.13;2.83;;;22.70;38.10;;;;;;5040887;28;20275;-92
2021/09/22 11:35:08;;;;;;;4.22;3.92;;;22.90;38.90;;;;;;5037694;28;20196;-92
2021/09/22 11:37:38;;;;;;;4.28;3.88;;;23.50;38.00;;;;;;5072655;28;20296;-90
2021/09/22 11:40:31;;;;;;;3.97;3.67;;;23.30;37.50;;;;;;5051789;28;20214;-90
2021/09/22 11:42:59;;;;;;;3.38;3.17;;;23.60;36.80;;;;;;5053615;28;20260;-89
2021/09/22 11:45:33;;;;;;;3.80;3.50;;;23.50;37.50;;;;;;5046881;28;20196;-89
2021/09/22 11:47:59;;;;;;;3.72;3.42;;;23.60;37.10;;;;;;5045026;28;20192;-90
2021/09/22 11:50:37;;;;;;;3.80;3.50;;;23.50;37.80;;;;;;5048664;28;20207;-90
2021/09/22 11:53:08;;;;;;;3.92;3.63;;;23.40;37.40;;;;;;5044447;28;20184;-90
2021/09/22 11:55:34;;;;;;;4.18;3.72;;;23.30;37.90;;;;;;5056202;28;20284;-92
2021/09/22 11:58:08;;;;;;;3.78;3.47;;;23.20;38.00;;;;;;5056385;28;20947;-91
2021/09/22 12:00:35;;;;;;;3.72;3.42;;;23.20;37.10;;;;;;5066727;28;20160;-89
2021/09/22 12:03:12;;;;;;;3.90;3.40;;;23.70;37.30;;;;;;5070648;28;20191;-91
2021/09/22 12:05:39;;;;;;;4.05;3.75;;;23.80;36.40;;;;;;5046404;28;20206;-92
2021/09/22 12:08:06;;;;;;;4.00;3.08;;;23.80;36.80;;;;;;5042743;28;20204;-91
2021/09/22 12:10:33;;;;;;;3.72;3.42;;;23.80;36.80;;;;;;5075348;28;20206;-92
2021/09/22 12:13:00;;;;;;;5.18;2.85;;;23.80;36.50;;;;;;5072461;28;20275;-92
2021/09/22 12:15:26;;;;;;;3.42;3.22;;;23.90;36.40;;;;;;5061292;28;20180;-91
2021/09/22 12:17:53;;;;;;;3.80;3.50;;;24.20;36.00;;;;;;5062389;28;20232;-91
2021/09/22 12:20:20;;;;;;;4.03;3.63;;;24.30;36.10;;;;;;5042016;28;20220;-91
2021/09/22 12:23:00;;;;;;;3.58;3.20;;;24.10;36.60;;;;;;5030616;28;20276;-91
2021/09/22 12:25:28;;;;;;;3.33;3.05;;;23.90;36.10;;;;;;5013062;28;20188;-91
2021/09/22 12:27:54;;;;;;;3.25;2.95;;;23.70;37.20;;;;;;5059879;28;20187;-92
2021/09/22 12:30:35;;;;;;;3.95;3.58;;;23.90;37.50;;;;;;5058262;28;20239;-90
2021/09/22 12:33:04;;;;;;;3.58;3.30;;;24.10;36.40;;;;;;5063224;28;20196;-91
2021/09/22 12:35:34;;;;;;;3.63;3.22;;;24.40;36.70;;;;;;5040343;28;20192;-91
2021/09/22 12:38:03;;;;;;;3.58;3.28;;;24.40;36.50;;;;;;5027560;28;20208;-92
2021/09/22 12:40:48;;;;;;;3.50;3.22;;;24.80;36.00;;;;;;5022722;28;20184;-92
2021/09/22 12:43:26;;;;;;;4.03;3.47;;;25.10;35.40;;;;;;5032577;28;20256;-91
2021/09/22 12:46:13;;;;;;;3.50;3.20;;;24.90;35.50;;;;;;5026199;28;20231;-91